Time;durP1;ratioP1;P1;durP2;ratioP2;P2;SDS_P1;SDS_P2;PMS_P1;PMS_P2;Temp;Humidity;BMP_temperature;BMP_pressure;BME280_temperature;BME280_humidity;BME280_pressure;Samples;Min_cycle;Max_cycle;Signal;HPM_P1;HPM_P2
2021/12/03 00:01:15;;;;;;;2.45;1.55;;;0.50;99.90;;;;;;4841864;29;20125;-66
2021/12/03 00:03:43;;;;;;;5.15;1.25;;;0.50;99.90;;;;;;4836915;29;20549;-66
2021/12/03 00:06:11;;;;;;;6.30;1.35;;;0.50;99.90;;;;;;4825233;29;20478;-66
2021/12/03 00:08:38;;;;;;;4.40;1.52;;;0.50;99.90;;;;;;4839664;29;20054;-64
2021/12/03 00:11:05;;;;;;;3.42;1.25;;;0.50;99.90;;;;;;4838859;29;20066;-63
2021/12/03 00:13:33;;;;;;;2.00;1.38;;;0.50;99.90;;;;;;4844740;29;20056;-66
2021/12/03 00:16:01;;;;;;;1.70;1.00;;;0.50;99.90;;;;;;4840707;29;20057;-63
2021/12/03 00:18:29;;;;;;;4.18;1.48;;;0.50;99.90;;;;;;4839605;29;20064;-68
2021/12/03 00:21:00;;;;;;;5.20;1.23;;;0.50;99.90;;;;;;4839959;29;20054;-64
2021/12/03 00:23:28;;;;;;;2.90;1.25;;;0.50;99.90;;;;;;4839358;29;20054;-64
2021/12/03 00:25:58;;;;;;;2.85;1.20;;;0.50;99.90;;;;;;4847663;29;20053;-67
2021/12/03 00:28:26;;;;;;;1.92;1.05;;;0.50;99.90;;;;;;4839395;29;20049;-64
2021/12/03 00:30:54;;;;;;;1.60;1.45;;;0.40;99.90;;;;;;4841504;29;20046;-64
2021/12/03 00:33:21;;;;;;;1.88;1.05;;;0.40;99.90;;;;;;4839935;29;20050;-64
2021/12/03 00:35:50;;;;;;;3.00;1.25;;;0.40;99.90;;;;;;4843709;29;20087;-66
2021/12/03 00:38:17;;;;;;;1.85;1.05;;;0.40;99.90;;;;;;4830721;29;20054;-65
2021/12/03 00:40:45;;;;;;;1.20;0.98;;;0.40;99.90;;;;;;4840902;29;20142;-67
2021/12/03 00:43:12;;;;;;;2.88;1.15;;;0.40;99.90;;;;;;4839071;29;20054;-63
2021/12/03 00:45:42;;;;;;;4.78;1.17;;;0.40;99.90;;;;;;4840722;29;20115;-65
2021/12/03 00:48:09;;;;;;;1.90;1.33;;;0.40;99.90;;;;;;4839378;29;20083;-72
2021/12/03 00:50:36;;;;;;;2.53;1.20;;;0.40;99.90;;;;;;4838568;29;20053;-63
2021/12/03 00:53:04;;;;;;;1.55;0.93;;;0.40;99.90;;;;;;4839343;29;20114;-63
2021/12/03 00:55:32;;;;;;;2.05;0.88;;;0.40;99.90;;;;;;4838615;29;20417;-64
2021/12/03 00:58:00;;;;;;;1.73;0.70;;;0.40;99.90;;;;;;4831343;29;20058;-66
2021/12/03 01:00:29;;;;;;;1.50;0.88;;;0.40;99.90;;;;;;4836727;29;20057;-63
2021/12/03 01:02:59;;;;;;;1.73;1.58;;;0.40;99.90;;;;;;4838858;29;20046;-66
2021/12/03 01:05:27;;;;;;;2.95;0.95;;;0.40;99.90;;;;;;4840160;29;20658;-64
2021/12/03 01:07:54;;;;;;;1.92;1.02;;;0.40;99.90;;;;;;4843360;29;20497;-64
2021/12/03 01:10:22;;;;;;;1.75;1.10;;;0.40;99.90;;;;;;4841206;29;20046;-65
2021/12/03 01:12:49;;;;;;;1.50;0.90;;;0.40;99.90;;;;;;4842291;29;20113;-64
2021/12/03 01:15:22;;;;;;;1.10;0.68;;;0.40;99.90;;;;;;4842830;29;20493;-63
2021/12/03 01:17:49;;;;;;;2.15;1.50;;;0.40;99.90;;;;;;4840618;29;20065;-65
2021/12/03 01:20:16;;;;;;;5.25;1.02;;;0.40;99.90;;;;;;4843575;29;20122;-64
2021/12/03 01:22:45;;;;;;;1.52;1.13;;;0.40;99.90;;;;;;4847931;29;20049;-66
2021/12/03 01:25:15;;;;;;;4.43;1.05;;;0.40;99.90;;;;;;4842049;29;20077;-69
2021/12/03 01:27:43;;;;;;;1.87;1.23;;;0.40;99.90;;;;;;4842464;29;20072;-64
2021/12/03 01:30:12;;;;;;;1.60;0.95;;;0.40;99.90;;;;;;4842306;29;20353;-71
2021/12/03 01:32:39;;;;;;;3.42;0.95;;;0.40;99.90;;;;;;4841379;29;20054;-64
2021/12/03 01:35:08;;;;;;;1.58;1.38;;;0.40;99.90;;;;;;4843200;29;20042;-64
2021/12/03 01:37:35;;;;;;;3.17;1.23;;;0.40;99.90;;;;;;4842511;29;20077;-64
2021/12/03 01:40:05;;;;;;;1.20;1.10;;;0.40;99.90;;;;;;4846820;29;20049;-64
2021/12/03 01:42:32;;;;;;;1.00;0.80;;;0.40;99.90;;;;;;4847514;29;20049;-65
2021/12/03 01:44:59;;;;;;;3.60;1.42;;;0.40;99.90;;;;;;4847111;29;20057;-64
2021/12/03 01:47:26;;;;;;;2.90;1.40;;;0.30;99.90;;;;;;4866128;29;20053;-65
2021/12/03 01:49:53;;;;;;;5.00;1.42;;;0.40;99.90;;;;;;4841754;29;20470;-64
2021/12/03 01:52:20;;;;;;;1.65;0.85;;;0.30;99.90;;;;;;4840604;29;20057;-67
2021/12/03 01:54:47;;;;;;;1.30;0.98;;;0.30;99.90;;;;;;4840212;29;20240;-64
2021/12/03 01:57:16;;;;;;;2.33;1.30;;;0.30;99.90;;;;;;4842502;29;20046;-64
2021/12/03 01:59:43;;;;;;;3.17;0.85;;;0.30;99.90;;;;;;4845845;29;20083;-63
2021/12/03 02:02:10;;;;;;;1.10;0.90;;;0.30;99.90;;;;;;4857860;29;20053;-65
2021/12/03 02:04:37;;;;;;;2.03;0.60;;;0.30;99.90;;;;;;4842858;29;20054;-65
2021/12/03 02:07:07;;;;;;;1.52;1.13;;;0.30;99.90;;;;;;4843083;29;20057;-63
2021/12/03 02:09:34;;;;;;;1.45;1.00;;;0.30;99.90;;;;;;4843006;29;20110;-64
2021/12/03 02:12:02;;;;;;;1.08;0.90;;;0.30;99.90;;;;;;4844237;29;20118;-64
2021/12/03 02:14:29;;;;;;;1.83;1.05;;;0.30;99.90;;;;;;4840335;29;20106;-67
2021/12/03 02:16:56;;;;;;;2.80;1.05;;;0.30;99.90;;;;;;4841349;29;20061;-63
2021/12/03 02:19:23;;;;;;;1.40;1.13;;;0.30;99.90;;;;;;4842674;29;20057;-64
2021/12/03 02:21:50;;;;;;;1.10;0.45;;;0.30;99.90;;;;;;4841682;29;20115;-64
2021/12/03 02:24:21;;;;;;;1.23;0.70;;;0.30;99.90;;;;;;4851389;29;20050;-64
2021/12/03 02:26:49;;;;;;;;;;;0.30;99.90;;;;;;4857087;29;20057;-67
2021/12/03 02:29:17;;;;;;;0.70;0.52;;;0.30;99.90;;;;;;4839387;29;19924;-64
2021/12/03 02:31:44;;;;;;;2.00;0.60;;;0.30;99.90;;;;;;4828581;29;20053;-65
2021/12/03 02:34:11;;;;;;;1.35;1.02;;;0.30;99.90;;;;;;4839961;29;20578;-64
2021/12/03 02:36:38;;;;;;;1.40;0.70;;;0.30;99.90;;;;;;4841107;29;20054;-65
2021/12/03 02:39:05;;;;;;;6.18;1.40;;;0.20;99.90;;;;;;4829332;29;20057;-64
2021/12/03 02:41:32;;;;;;;1.27;0.80;;;0.20;99.90;;;;;;4845751;29;20050;-68
2021/12/03 02:44:00;;;;;;;0.60;0.60;;;0.20;99.90;;;;;;4842841;29;20042;-64
2021/12/03 02:46:27;;;;;;;3.10;1.48;;;0.20;99.90;;;;;;4840701;29;20265;-64
2021/12/03 02:48:54;;;;;;;0.60;0.50;;;0.20;99.90;;;;;;4843456;29;20057;-66
2021/12/03 02:51:21;;;;;;;1.42;0.98;;;0.20;99.90;;;;;;4844424;29;20465;-65
2021/12/03 02:53:48;;;;;;;1.42;1.00;;;0.20;99.90;;;;;;4841109;29;20079;-64
2021/12/03 02:56:15;;;;;;;1.00;0.73;;;0.20;99.90;;;;;;4837629;29;20049;-66
2021/12/03 02:58:42;;;;;;;2.45;0.50;;;0.20;99.90;;;;;;4853148;29;20049;-64
2021/12/03 03:01:10;;;;;;;1.00;0.63;;;0.20;99.90;;;;;;4840845;29;20110;-66
2021/12/03 03:03:37;;;;;;;1.25;0.80;;;0.20;99.90;;;;;;4840992;29;20115;-65
2021/12/03 03:06:08;;;;;;;1.42;1.00;;;0.20;99.90;;;;;;4842748;29;20049;-64
2021/12/03 03:08:39;;;;;;;3.35;0.93;;;0.20;99.90;;;;;;4839053;29;20462;-64
2021/12/03 03:11:07;;;;;;;4.03;1.05;;;0.20;99.90;;;;;;4838309;29;20689;-64
2021/12/03 03:13:35;;;;;;;1.63;0.75;;;0.20;99.90;;;;;;4871466;29;20114;-64
2021/12/03 03:16:03;;;;;;;1.65;0.80;;;0.20;99.90;;;;;;4841263;29;20106;-63
2021/12/03 03:18:30;;;;;;;1.65;0.73;;;0.20;99.90;;;;;;4843355;29;20078;-63
2021/12/03 03:21:01;;;;;;;1.50;1.08;;;0.20;99.90;;;;;;4842551;29;20045;-66
2021/12/03 03:23:28;;;;;;;9.77;1.08;;;0.20;99.90;;;;;;4842166;29;20122;-63
2021/12/03 03:25:55;;;;;;;1.30;1.05;;;0.20;99.90;;;;;;4838554;29;20422;-63
2021/12/03 03:28:24;;;;;;;2.00;1.40;;;0.20;99.90;;;;;;4836798;29;20054;-66
2021/12/03 03:30:54;;;;;;;6.72;2.67;;;0.20;99.90;;;;;;4844193;29;20073;-64
2021/12/03 03:33:22;;;;;;;2.47;1.17;;;0.20;99.90;;;;;;4844908;29;20056;-67
2021/12/03 03:35:49;;;;;;;3.33;1.13;;;0.20;99.90;;;;;;4838419;29;20058;-68
2021/12/03 03:38:17;;;;;;;3.08;1.70;;;0.20;99.90;;;;;;4836991;29;20169;-64
2021/12/03 03:40:47;;;;;;;4.18;1.05;;;0.20;99.90;;;;;;4842798;29;20054;-70
2021/12/03 03:43:15;;;;;;;1.70;1.08;;;0.20;99.90;;;;;;4840971;29;20110;-65
2021/12/03 03:45:42;;;;;;;1.52;1.00;;;0.20;99.90;;;;;;4842375;29;20456;-69
2021/12/03 03:48:10;;;;;;;2.53;1.05;;;0.20;99.90;;;;;;4835621;29;20054;-64
2021/12/03 03:50:38;;;;;;;3.65;1.40;;;0.20;99.90;;;;;;4839566;29;20057;-64
2021/12/03 03:53:05;;;;;;;0.77;0.63;;;0.20;99.90;;;;;;4835984;29;20094;-68
2021/12/03 03:55:33;;;;;;;1.65;0.70;;;0.20;99.90;;;;;;4838461;29;20057;-66
2021/12/03 03:58:02;;;;;;;1.65;1.40;;;0.30;99.90;;;;;;4837713;29;20133;-64
2021/12/03 04:00:40;;;;;;;2.58;0.63;;;0.20;99.90;;;;;;4837351;29;20054;-64
2021/12/03 04:03:08;;;;;;;2.33;1.02;;;0.30;99.90;;;;;;4838608;29;20133;-65
2021/12/03 04:05:35;;;;;;;4.53;1.13;;;0.30;99.90;;;;;;4838457;29;20466;-63
2021/12/03 04:08:02;;;;;;;2.05;0.80;;;0.20;99.90;;;;;;4837834;29;20045;-63
2021/12/03 04:10:30;;;;;;;1.00;0.90;;;0.20;99.90;;;;;;4838035;29;20060;-64
2021/12/03 04:12:57;;;;;;;1.95;1.40;;;0.30;99.90;;;;;;4837648;29;20049;-68
2021/12/03 04:15:25;;;;;;;1.58;0.80;;;0.20;99.90;;;;;;4839396;29;20053;-63
2021/12/03 04:17:52;;;;;;;2.58;1.10;;;0.20;99.90;;;;;;4837618;29;20041;-64
2021/12/03 04:20:20;;;;;;;2.13;0.75;;;0.20;99.90;;;;;;4836930;29;20049;-66
2021/12/03 04:22:48;;;;;;;1.25;1.17;;;0.20;99.90;;;;;;4835749;29;20054;-67
2021/12/03 04:25:19;;;;;;;1.25;1.15;;;0.20;99.90;;;;;;4844952;29;20050;-66
2021/12/03 04:27:48;;;;;;;1.73;0.90;;;0.20;99.90;;;;;;4837629;29;20100;-64
2021/12/03 04:30:20;;;;;;;3.85;1.77;;;0.20;99.90;;;;;;4836258;29;20049;-69
2021/12/03 04:32:47;;;;;;;1.42;0.82;;;0.20;99.90;;;;;;4838245;29;20438;-64
2021/12/03 04:35:15;;;;;;;1.13;0.70;;;0.10;99.90;;;;;;4838181;29;20070;-67
2021/12/03 04:37:42;;;;;;;1.52;0.85;;;0.20;99.90;;;;;;4840024;29;20129;-66
2021/12/03 04:40:11;;;;;;;1.00;0.80;;;0.10;99.90;;;;;;4837660;29;20122;-70
2021/12/03 04:42:39;;;;;;;0.95;0.70;;;0.00;99.90;;;;;;4838570;29;20054;-65
2021/12/03 04:45:09;;;;;;;4.45;1.02;;;0.00;99.90;;;;;;4840395;29;20046;-64
2021/12/03 04:47:36;;;;;;;1.75;0.93;;;0.00;99.90;;;;;;4854042;29;20416;-67
2021/12/03 04:50:06;;;;;;;3.03;0.90;;;0.00;99.90;;;;;;4840122;29;20511;-65
2021/12/03 04:52:33;;;;;;;5.07;1.10;;;0.00;99.90;;;;;;4838700;29;20057;-65
2021/12/03 04:55:00;;;;;;;2.38;1.55;;;0.00;99.90;;;;;;4839665;29;20050;-69
2021/12/03 04:57:27;;;;;;;2.15;1.65;;;0.00;99.90;;;;;;4840198;29;20053;-64
2021/12/03 04:59:54;;;;;;;1.08;0.90;;;0.00;99.90;;;;;;4840102;29;20054;-65
2021/12/03 05:02:22;;;;;;;3.33;1.10;;;0.00;99.90;;;;;;4837058;29;20413;-65
2021/12/03 05:04:51;;;;;;;2.10;1.10;;;0.00;99.90;;;;;;4838218;29;20060;-64
2021/12/03 05:07:30;;;;;;;1.10;0.77;;;0.10;99.90;;;;;;4839291;29;20082;-68
2021/12/03 05:09:58;;;;;;;1.48;0.80;;;0.10;99.90;;;;;;4837298;29;20050;-68
2021/12/03 05:12:25;;;;;;;1.45;0.70;;;0.20;99.90;;;;;;4838544;29;20446;-66
2021/12/03 05:14:52;;;;;;;1.35;0.70;;;0.10;99.90;;;;;;4839114;29;20042;-64
2021/12/03 05:17:19;;;;;;;3.63;1.52;;;0.20;99.90;;;;;;4838060;29;20046;-69
2021/12/03 05:19:47;;;;;;;1.98;0.60;;;0.20;99.90;;;;;;4840391;29;20058;-67
2021/12/03 05:22:15;;;;;;;1.20;0.93;;;0.20;99.90;;;;;;4838819;29;20389;-63
2021/12/03 05:24:45;;;;;;;1.23;0.82;;;0.20;99.90;;;;;;4868917;29;20050;-64
2021/12/03 05:27:16;;;;;;;;;;;0.20;99.90;;;;;;4841693;29;20482;-64
2021/12/03 05:29:45;;;;;;;1.95;0.93;;;0.20;99.90;;;;;;4837956;29;19989;-67
2021/12/03 05:32:12;;;;;;;1.02;0.88;;;0.10;99.90;;;;;;4839393;29;20509;-64
2021/12/03 05:34:39;;;;;;;2.08;0.70;;;0.10;99.90;;;;;;4838646;29;20057;-66
2021/12/03 05:37:08;;;;;;;3.03;1.10;;;0.10;99.90;;;;;;4840584;29;20102;-73
2021/12/03 05:39:36;;;;;;;4.00;1.02;;;0.10;99.90;;;;;;4837572;29;20081;-70
2021/12/03 05:42:04;;;;;;;5.10;1.52;;;0.20;99.90;;;;;;4853148;29;20667;-65
2021/12/03 05:44:32;;;;;;;1.13;0.90;;;0.20;99.90;;;;;;4835179;29;20411;-68
2021/12/03 05:47:00;;;;;;;3.83;1.23;;;0.20;99.90;;;;;;4838438;29;20565;-67
2021/12/03 05:49:27;;;;;;;2.05;1.05;;;0.20;99.90;;;;;;4840327;29;20408;-65
2021/12/03 05:51:55;;;;;;;1.27;0.85;;;0.20;99.90;;;;;;4836808;29;20190;-65
2021/12/03 05:54:23;;;;;;;1.08;0.70;;;0.20;99.90;;;;;;4836074;29;20066;-69
2021/12/03 05:56:50;;;;;;;1.05;0.77;;;0.20;99.90;;;;;;4836570;29;20050;-68
2021/12/03 05:59:17;;;;;;;3.05;1.00;;;0.30;99.90;;;;;;4834918;29;20747;-65
2021/12/03 06:01:44;;;;;;;2.67;0.98;;;0.30;99.90;;;;;;4838688;29;20485;-65
2021/12/03 06:04:11;;;;;;;2.63;1.00;;;0.20;99.90;;;;;;4839274;29;20077;-64
2021/12/03 06:06:38;;;;;;;0.90;0.57;;;0.20;99.90;;;;;;4837296;29;20049;-66
2021/12/03 06:09:05;;;;;;;2.38;1.48;;;0.20;99.90;;;;;;4834054;29;20244;-64
2021/12/03 06:11:32;;;;;;;1.55;1.08;;;0.20;99.90;;;;;;4835945;29;20512;-63
2021/12/03 06:13:59;;;;;;;1.40;1.00;;;0.30;99.90;;;;;;4833561;29;20098;-66
2021/12/03 06:16:26;;;;;;;2.65;0.90;;;0.20;99.90;;;;;;4835633;29;20813;-67
2021/12/03 06:18:53;;;;;;;2.25;0.73;;;0.20;99.90;;;;;;4836019;29;20176;-66
2021/12/03 06:21:20;;;;;;;1.67;1.05;;;0.30;99.90;;;;;;4840103;29;20657;-66
2021/12/03 06:23:48;;;;;;;1.73;0.85;;;0.30;99.90;;;;;;4836060;29;20050;-65
2021/12/03 06:26:15;;;;;;;2.58;1.50;;;0.30;99.90;;;;;;4836869;29;20057;-65
2021/12/03 06:28:42;;;;;;;3.55;1.00;;;0.30;99.90;;;;;;4836204;29;20061;-68
2021/12/03 06:31:09;;;;;;;1.10;0.90;;;0.30;99.90;;;;;;4838124;29;20049;-69
2021/12/03 06:33:36;;;;;;;3.03;0.88;;;0.40;99.90;;;;;;4836062;29;20042;-65
2021/12/03 06:36:04;;;;;;;1.58;1.20;;;0.40;99.90;;;;;;4836091;29;20049;-68
2021/12/03 06:38:31;;;;;;;1.77;1.15;;;0.40;99.90;;;;;;4833763;29;20135;-64
2021/12/03 06:40:58;;;;;;;1.20;1.00;;;0.30;99.90;;;;;;4835895;29;20049;-66
2021/12/03 06:43:25;;;;;;;1.65;1.30;;;0.40;99.90;;;;;;4833188;29;20053;-65
2021/12/03 06:45:53;;;;;;;2.72;0.90;;;0.40;99.90;;;;;;4839844;29;20172;-66
2021/12/03 06:48:20;;;;;;;1.65;1.20;;;0.40;99.90;;;;;;4834425;29;20484;-63
2021/12/03 06:50:49;;;;;;;0.95;0.80;;;0.40;99.90;;;;;;4840264;29;20085;-65
2021/12/03 06:53:20;;;;;;;1.35;1.25;;;0.40;99.90;;;;;;4842384;29;20090;-68
2021/12/03 06:55:51;;;;;;;0.93;0.90;;;0.40;99.90;;;;;;4840968;29;20170;-65
2021/12/03 06:58:20;;;;;;;2.15;0.85;;;0.40;99.90;;;;;;4839264;29;20049;-67
2021/12/03 07:00:50;;;;;;;2.00;1.77;;;0.40;99.90;;;;;;4840055;29;20052;-64
2021/12/03 07:03:17;;;;;;;1.35;0.90;;;0.40;99.90;;;;;;4836429;29;20521;-66
2021/12/03 07:05:44;;;;;;;1.60;1.00;;;0.40;99.90;;;;;;4837512;29;20042;-73
2021/12/03 07:08:11;;;;;;;1.25;0.82;;;0.40;99.90;;;;;;4835490;29;20058;-65
2021/12/03 07:10:39;;;;;;;1.83;0.88;;;0.40;99.90;;;;;;4835129;29;20428;-70
2021/12/03 07:13:06;;;;;;;3.45;1.45;;;0.40;99.90;;;;;;4840668;29;20054;-68
2021/12/03 07:15:34;;;;;;;6.50;3.05;;;0.40;99.90;;;;;;4836823;29;20058;-68
2021/12/03 07:18:02;;;;;;;2.97;1.20;;;0.40;99.90;;;;;;4836888;29;20042;-71
2021/12/03 07:20:30;;;;;;;1.05;0.88;;;0.40;99.90;;;;;;4845145;29;20038;-69
2021/12/03 07:22:57;;;;;;;2.65;0.85;;;0.40;99.90;;;;;;4838001;29;20049;-69
2021/12/03 07:25:25;;;;;;;4.20;1.20;;;0.40;99.90;;;;;;4837438;29;20087;-68
2021/12/03 07:27:53;;;;;;;2.10;1.40;;;0.40;99.90;;;;;;4842280;29;20805;-65
2021/12/03 07:30:20;;;;;;;1.63;0.70;;;0.40;99.90;;;;;;4834399;29;20435;-66
2021/12/03 07:32:48;;;;;;;2.85;0.93;;;0.40;99.90;;;;;;4839054;29;20486;-71
2021/12/03 07:35:16;;;;;;;1.83;1.67;;;0.40;99.90;;;;;;4841058;29;20062;-68
2021/12/03 07:37:43;;;;;;;1.13;0.80;;;0.40;99.90;;;;;;4834824;29;20533;-64
2021/12/03 07:40:12;;;;;;;4.20;1.33;;;0.50;99.90;;;;;;4833217;29;20057;-73
2021/12/03 07:42:40;;;;;;;1.65;1.00;;;0.40;99.90;;;;;;4831274;29;20443;-66
2021/12/03 07:45:09;;;;;;;1.33;0.98;;;0.50;99.90;;;;;;4832821;29;20730;-66
2021/12/03 07:47:37;;;;;;;1.88;0.90;;;0.40;99.90;;;;;;4837549;29;20061;-65
2021/12/03 07:50:06;;;;;;;2.88;1.40;;;0.50;99.90;;;;;;4835858;29;20050;-64
2021/12/03 07:52:34;;;;;;;3.08;1.10;;;0.50;99.90;;;;;;4833871;29;20428;-66
2021/12/03 07:55:02;;;;;;;1.48;1.10;;;0.50;99.90;;;;;;4833019;29;20050;-66
2021/12/03 07:57:30;;;;;;;1.15;0.73;;;0.50;99.90;;;;;;4837134;29;20525;-68
2021/12/03 07:59:57;;;;;;;2.33;1.05;;;0.50;99.90;;;;;;4834393;29;20058;-63
2021/12/03 08:02:24;;;;;;;0.88;0.77;;;0.50;99.90;;;;;;4836082;29;20541;-65
2021/12/03 08:04:52;;;;;;;0.90;0.75;;;0.50;99.90;;;;;;4836706;29;20157;-65
2021/12/03 08:07:19;;;;;;;2.83;0.98;;;0.50;99.90;;;;;;4835867;29;20122;-70
2021/12/03 08:09:46;;;;;;;2.05;0.65;;;0.50;99.90;;;;;;4835645;29;20382;-66
2021/12/03 08:12:13;;;;;;;1.30;0.80;;;0.50;99.90;;;;;;4835504;29;20071;-63
2021/12/03 08:14:40;;;;;;;1.55;0.80;;;0.50;99.90;;;;;;4834128;29;20082;-65
2021/12/03 08:17:07;;;;;;;2.03;1.02;;;0.50;99.90;;;;;;4834225;29;20087;-67
2021/12/03 08:19:34;;;;;;;1.33;0.63;;;0.60;99.90;;;;;;4836713;29;20080;-63
2021/12/03 08:22:02;;;;;;;1.10;0.95;;;0.50;99.90;;;;;;4835482;29;20054;-63
2021/12/03 08:24:29;;;;;;;2.67;1.17;;;0.60;99.90;;;;;;4830208;29;20065;-64
2021/12/03 08:26:56;;;;;;;4.15;0.70;;;0.50;99.90;;;;;;4836316;29;20050;-64
2021/12/03 08:29:23;;;;;;;2.25;0.85;;;0.60;99.90;;;;;;4835449;29;20079;-63
2021/12/03 08:31:50;;;;;;;1.55;0.95;;;0.60;99.90;;;;;;4833319;29;20450;-63
2021/12/03 08:34:17;;;;;;;0.70;0.40;;;0.60;99.90;;;;;;4833438;29;20050;-64
2021/12/03 08:36:44;;;;;;;0.80;0.80;;;0.60;99.90;;;;;;4832293;29;20075;-65
2021/12/03 08:39:11;;;;;;;0.80;0.75;;;0.60;99.90;;;;;;4835960;29;20050;-63
2021/12/03 08:41:38;;;;;;;2.13;0.75;;;0.60;99.90;;;;;;4835140;29;20671;-68
2021/12/03 08:44:05;;;;;;;1.38;0.80;;;0.60;99.90;;;;;;4837169;29;20062;-65
2021/12/03 08:46:35;;;;;;;0.70;0.60;;;0.60;99.90;;;;;;4829601;29;20053;-65
2021/12/03 08:49:09;;;;;;;1.05;0.90;;;0.60;99.90;;;;;;4836876;29;20050;-67
2021/12/03 08:57:09;;;;;;;4.28;1.40;;;0.60;99.90;;;;;;4836341;29;20057;-65
2021/12/03 08:59:37;;;;;;;1.27;0.77;;;0.60;99.90;;;;;;4835811;29;20054;-65
2021/12/03 09:02:05;;;;;;;2.85;1.27;;;0.50;99.90;;;;;;4837830;29;20053;-65
2021/12/03 09:04:33;;;;;;;1.20;0.85;;;0.60;99.90;;;;;;4833710;29;20050;-65
2021/12/03 09:07:02;;;;;;;4.32;1.70;;;0.60;99.90;;;;;;4834907;29;20069;-65
2021/12/03 09:09:30;;;;;;;6.13;2.25;;;0.60;99.90;;;;;;4830621;29;20058;-69
2021/12/03 09:11:58;;;;;;;6.20;1.38;;;0.60;99.90;;;;;;4834833;29;20064;-67
2021/12/03 09:17:16;;;;;;;0.80;0.68;;;0.70;99.90;;;;;;4833000;29;20046;-65
2021/12/03 09:22:20;;;;;;;1.48;0.93;;;0.70;99.90;;;;;;4835223;29;20588;-69
2021/12/03 09:24:47;;;;;;;2.47;0.98;;;0.80;99.90;;;;;;4850014;29;20057;-64
2021/12/03 09:27:16;;;;;;;1.45;0.60;;;0.80;99.90;;;;;;4840991;29;20050;-64
2021/12/03 09:29:43;;;;;;;0.93;0.93;;;0.90;99.90;;;;;;4840454;29;20107;-64
2021/12/03 09:32:14;;;;;;;2.88;1.63;;;0.90;99.90;;;;;;4842014;29;20089;-65
2021/12/03 09:34:41;;;;;;;2.60;2.33;;;0.90;99.90;;;;;;4839434;29;20057;-65
2021/12/03 09:37:08;;;;;;;3.22;1.98;;;0.80;99.90;;;;;;4842786;29;20049;-64
2021/12/03 09:39:39;;;;;;;2.30;2.05;;;0.80;99.90;;;;;;4841910;29;20118;-65
2021/12/03 09:42:07;;;;;;;3.22;2.40;;;0.70;99.90;;;;;;4842757;29;20077;-68
2021/12/03 09:44:39;;;;;;;2.13;1.90;;;0.60;99.90;;;;;;4838465;29;20068;-75
2021/12/03 09:47:06;;;;;;;5.85;2.88;;;0.60;99.90;;;;;;4840225;29;20073;-67
2021/12/03 09:49:37;;;;;;;2.17;1.77;;;0.60;99.90;;;;;;4844531;29;20056;-65
2021/12/03 09:52:30;;;;;;;3.55;2.22;;;0.50;99.90;;;;;;4872287;29;20714;-65
2021/12/03 09:55:02;;;;;;;3.95;2.72;;;0.40;99.90;;;;;;4842690;29;20069;-65
2021/12/03 09:57:40;;;;;;;4.00;1.98;;;0.50;99.90;;;;;;4846082;29;20106;-66
2021/12/03 10:13:39;;;;;;;3.50;1.80;;;0.50;99.90;;;;;;4839672;29;20106;-69
2021/12/03 10:18:57;;;;;;;3.55;1.73;;;0.50;99.90;;;;;;4837255;29;20077;-66
2021/12/03 10:24:50;;;;;;;1.98;1.10;;;0.40;99.90;;;;;;4841404;29;22025;-68
2021/12/03 10:33:09;;;;;;;5.05;1.75;;;0.50;99.90;;;;;;4842689;29;20651;-63
2021/12/03 10:43:50;;;;;;;1.75;1.35;;;0.60;99.90;;;;;;4841331;29;20050;-64
2021/12/03 11:31:35;;;;;;;1.77;0.68;;;0.70;99.90;;;;;;4833504;29;20109;-63
2021/12/03 14:50:00;;;;;;;3.75;1.13;;;-0.20;99.90;;;;;;4842023;29;20140;-68
2021/12/03 14:55:06;;;;;;;5.38;1.67;;;-0.20;99.90;;;;;;4841402;29;20045;-66
2021/12/03 14:57:57;;;;;;;3.15;1.10;;;-0.20;99.90;;;;;;4842136;29;20049;-66
2021/12/03 15:08:17;;;;;;;1.55;0.70;;;-0.20;99.90;;;;;;4837707;29;20053;-66
2021/12/03 15:27:16;;;;;;;0.80;0.80;;;-0.20;99.90;;;;;;4842167;29;20057;-68
2021/12/03 15:32:41;;;;;;;1.67;0.85;;;-0.30;99.90;;;;;;4836614;29;20519;-68
2021/12/03 15:35:37;;;;;;;1.52;0.95;;;-0.30;99.90;;;;;;4837220;29;20110;-66
2021/12/03 15:41:24;;;;;;;0.82;0.65;;;-0.40;99.90;;;;;;4830192;29;19932;-72
2021/12/03 16:10:41;;;;;;;1.55;1.45;;;-0.30;99.90;;;;;;4835062;29;20081;-74
2021/12/03 16:51:10;;;;;;;1.30;1.02;;;-0.40;99.90;;;;;;4843525;29;20852;-64
2021/12/03 16:53:38;;;;;;;2.10;1.30;;;-0.40;99.90;;;;;;4842563;29;20053;-69
2021/12/03 16:56:27;;;;;;;1.05;0.88;;;-0.40;99.90;;;;;;4841449;29;20098;-66
2021/12/03 16:58:57;;;;;;;1.30;0.93;;;-0.40;99.90;;;;;;4836792;29;20054;-69
2021/12/03 17:04:45;;;;;;;4.93;4.47;;;-0.50;99.90;;;;;;4843722;29;20122;-65
2021/12/03 17:55:18;;;;;;;1.02;0.95;;;-0.70;99.90;;;;;;4840458;29;20103;-64
2021/12/03 17:57:52;;;;;;;0.98;0.90;;;-0.80;99.90;;;;;;4839323;29;20046;-64
2021/12/03 18:00:34;;;;;;;4.47;3.13;;;-0.80;99.90;;;;;;4839598;29;20116;-66
2021/12/03 18:03:10;;;;;;;9.77;5.32;;;-0.80;99.90;;;;;;4838999;29;20504;-73
2021/12/03 18:49:02;;;;;;;2.15;1.33;;;-1.30;99.90;;;;;;4838554;29;20115;-64
2021/12/03 18:54:27;;;;;;;2.55;1.67;;;-1.40;99.90;;;;;;4834175;29;20050;-64
2021/12/03 18:57:02;;;;;;;3.20;2.20;;;-1.50;99.90;;;;;;4839565;29;20062;-65
2021/12/03 18:59:29;;;;;;;2.88;2.25;;;-1.50;99.90;;;;;;4838843;29;20106;-75
2021/12/03 19:01:58;;;;;;;1.90;1.70;;;-1.60;99.90;;;;;;4830243;29;20103;-70
2021/12/03 19:04:33;;;;;;;4.30;3.30;;;-1.60;99.90;;;;;;4831548;29;20046;-68
2021/12/03 19:07:11;;;;;;;2.15;1.80;;;-1.60;99.90;;;;;;4836035;29;20053;-69
2021/12/03 19:09:42;;;;;;;2.85;2.53;;;-1.70;99.90;;;;;;4841320;29;20054;-74
2021/12/03 19:12:12;;;;;;;4.90;4.30;;;-1.70;99.90;;;;;;4832057;29;20060;-66
2021/12/03 19:14:47;;;;;;;11.65;7.57;;;-1.80;99.90;;;;;;4836102;29;20049;-64
2021/12/03 19:17:14;;;;;;;15.50;10.00;;;-1.90;99.90;;;;;;4838779;29;20054;-64
2021/12/03 19:19:45;;;;;;;12.07;9.45;;;-1.90;99.90;;;;;;4832156;29;20069;-70
2021/12/03 19:22:14;;;;;;;16.00;10.80;;;-2.00;99.90;;;;;;4839146;29;20678;-65
2021/12/03 19:24:42;;;;;;;22.15;17.05;;;-2.10;99.90;;;;;;4830172;29;20119;-66
2021/12/03 19:27:10;;;;;;;25.55;17.77;;;-2.10;99.90;;;;;;4832107;29;20485;-68
2021/12/03 19:29:38;;;;;;;26.33;19.38;;;-2.20;99.90;;;;;;4837936;29;20462;-66
2021/12/03 19:32:07;;;;;;;25.95;19.10;;;-2.30;99.90;;;;;;4829731;29;20117;-64
2021/12/03 19:34:34;;;;;;;23.67;18.73;;;-2.30;99.90;;;;;;4834193;29;20198;-69
2021/12/03 19:37:02;;;;;;;18.95;14.63;;;-2.40;99.90;;;;;;4841129;29;20061;-66
2021/12/03 19:39:29;;;;;;;17.55;12.88;;;-2.40;99.90;;;;;;4838129;29;20532;-64
2021/12/03 19:44:36;;;;;;;14.55;10.13;;;-2.50;99.90;;;;;;4841275;29;20053;-70
2021/12/03 19:47:05;;;;;;;16.00;9.35;;;-2.50;99.90;;;;;;4836292;29;20054;-63
2021/12/03 19:52:07;;;;;;;12.30;8.88;;;-2.60;99.90;;;;;;4837548;29;20113;-66
2021/12/03 19:54:34;;;;;;;13.05;8.75;;;-2.60;99.90;;;;;;4830374;29;20070;-68
2021/12/03 19:57:01;;;;;;;18.38;10.45;;;-2.70;99.90;;;;;;4833725;29;20094;-69
2021/12/03 19:59:28;;;;;;;20.95;11.13;;;-2.80;99.90;;;;;;4834832;29;20751;-66
2021/12/03 20:01:56;;;;;;;21.50;11.85;;;-2.90;99.90;;;;;;4834954;29;20061;-66
2021/12/03 20:04:24;;;;;;;22.33;14.60;;;-3.00;99.90;;;;;;4838829;29;20061;-69
2021/12/03 20:06:51;;;;;;;16.17;13.00;;;-3.10;99.90;;;;;;4842218;29;20074;-67
2021/12/03 20:09:24;;;;;;;16.25;12.48;;;-3.10;99.90;;;;;;4837114;29;20102;-68
2021/12/03 20:11:56;;;;;;;14.05;9.77;;;-3.20;99.90;;;;;;4839634;29;20137;-64
2021/12/03 20:14:23;;;;;;;;;;;-3.20;99.90;;;;;;4833584;29;21366;-63
2021/12/03 20:17:15;;;;;;;19.60;11.48;;;-3.20;99.90;;;;;;4835610;29;19972;-66
2021/12/03 20:19:48;;;;;;;16.92;12.60;;;-3.30;99.90;;;;;;4832936;29;20058;-65
2021/12/03 20:22:20;;;;;;;18.75;13.52;;;-3.40;99.90;;;;;;4834689;29;20533;-70
2021/12/03 20:27:59;;;;;;;15.82;11.23;;;-3.50;99.90;;;;;;4835838;29;20049;-67
2021/12/03 20:30:34;;;;;;;15.77;10.98;;;-3.50;99.90;;;;;;4835104;29;20412;-68
2021/12/03 20:38:28;;;;;;;15.10;12.43;;;-3.70;99.90;;;;;;4834854;29;20114;-65
2021/12/03 20:40:59;;;;;;;21.08;15.95;;;-3.70;99.90;;;;;;4835697;29;20107;-67
2021/12/03 20:47:18;;;;;;;21.57;15.77;;;-3.80;99.90;;;;;;4793405;29;20123;-71
2021/12/03 20:57:35;;;;;;;16.10;11.23;;;-4.00;99.90;;;;;;4820645;29;20078;-64
2021/12/03 21:10:56;;;;;;;12.02;9.20;;;-4.20;99.90;;;;;;4830690;29;20061;-68
2021/12/03 21:13:43;;;;;;;13.23;9.50;;;-4.20;99.90;;;;;;4833646;29;20057;-66
2021/12/03 21:21:10;;;;;;;11.07;8.63;;;-4.50;99.90;;;;;;4836963;29;20065;-72
2021/12/03 21:23:45;;;;;;;11.55;9.70;;;-4.50;99.90;;;;;;4838787;29;20488;-66
2021/12/03 21:26:20;;;;;;;11.45;8.25;;;-4.50;99.90;;;;;;4832540;29;20698;-68
2021/12/03 21:28:57;;;;;;;12.70;10.03;;;-4.60;99.90;;;;;;4835970;29;20054;-65
2021/12/03 21:31:32;;;;;;;18.17;13.27;;;-4.60;99.90;;;;;;4829136;29;20054;-65
2021/12/03 21:42:07;;;;;;;23.90;19.50;;;-4.70;99.90;;;;;;4840354;29;20050;-72
2021/12/03 21:44:34;;;;;;;21.47;17.60;;;-4.80;99.90;;;;;;4843131;29;20794;-72
2021/12/03 21:47:01;;;;;;;14.87;13.13;;;-4.80;99.90;;;;;;4840907;29;20054;-67
2021/12/03 21:49:29;;;;;;;10.30;9.23;;;-4.80;99.90;;;;;;4844539;29;20046;-68
2021/12/03 21:51:56;;;;;;;11.07;9.97;;;-4.80;99.90;;;;;;4839803;29;20054;-69